Xenia, Kansas
Current Conditions -  °F | °C
As of 10:52 PM on Thursday 30 Oct 2014 (Local Time) from KCNU Reporting Station
Clear Clear  
Wind Chill: 54°   Ceiling: Unl
Heat Index: 54°   Visibility: 10mi
Dew Point: 41°   Wind: 9mph
Humidity: 62%   Direction: 340°NNW
Pressure: 30.19"   Gusts: NA
Location:  37.9449°N, 95.0016°W
Report Text: KCNU 310352Z AUTO 34008KT 10SM CLR 12/05 A3019 RMK AO2 SLP221 T01220050
Loading
Personal Weather Stations






























Interactive Weather Map
Tropical Storm Tracking
New forecast layout! Learn more

10-Day Weather Forecast

Advertisements
Track Severe Weather on mobile